sensor_id;sensor_type;location;lat;lon;timestamp;P1;durP1;ratioP1;P2;durP2;ratioP2
84852;SDS011;75109;47.440;19.310;2024-01-07T00:00:27;22.37;;;22.37;;
84852;SDS011;75109;47.440;19.310;2024-01-07T00:01:00;21.10;;;21.10;;
84852;SDS011;75109;47.440;19.310;2024-01-07T00:01:32;21.30;;;21.30;;
84852;SDS011;75109;47.440;19.310;2024-01-07T00:02:05;21.57;;;21.57;;
84852;SDS011;75109;47.440;19.310;2024-01-07T00:02:37;22.30;;;22.30;;
84852;SDS011;75109;47.440;19.310;2024-01-07T00:03:09;21.40;;;21.37;;
84852;SDS011;75109;47.440;19.310;2024-01-07T00:03:42;22.90;;;22.73;;
84852;SDS011;75109;47.440;19.310;2024-01-07T00:04:14;22.37;;;22.23;;
84852;SDS011;75109;47.440;19.310;2024-01-07T00:04:47;22.47;;;22.10;;
84852;SDS011;75109;47.440;19.310;2024-01-07T00:05:19;23.27;;;22.73;;
84852;SDS011;75109;47.440;19.310;2024-01-07T00:05:51;23.07;;;22.73;;
84852;SDS011;75109;47.440;19.310;2024-01-07T00:06:23;24.27;;;23.43;;
84852;SDS011;75109;47.440;19.310;2024-01-07T00:06:55;22.80;;;22.77;;
84852;SDS011;75109;47.440;19.310;2024-01-07T00:07:28;22.57;;;22.57;;
84852;SDS011;75109;47.440;19.310;2024-01-07T00:08:00;21.90;;;21.90;;
84852;SDS011;75109;47.440;19.310;2024-01-07T00:08:33;21.53;;;21.30;;
84852;SDS011;75109;47.440;19.310;2024-01-07T00:09:06;21.73;;;21.47;;
84852;SDS011;75109;47.440;19.310;2024-01-07T00:09:39;21.33;;;21.00;;
84852;SDS011;75109;47.440;19.310;2024-01-07T00:10:12;22.63;;;21.97;;
84852;SDS011;75109;47.440;19.310;2024-01-07T00:10:44;21.70;;;21.00;;
84852;SDS011;75109;47.440;19.310;2024-01-07T00:11:16;21.70;;;21.03;;
84852;SDS011;75109;47.440;19.310;2024-01-07T00:11:48;21.30;;;21.27;;
84852;SDS011;75109;47.440;19.310;2024-01-07T00:12:21;20.20;;;20.20;;
84852;SDS011;75109;47.440;19.310;2024-01-07T00:12:53;19.90;;;19.90;;
84852;SDS011;75109;47.440;19.310;2024-01-07T00:13:25;19.77;;;19.77;;
84852;SDS011;75109;47.440;19.310;2024-01-07T00:13:58;20.70;;;20.70;;
84852;SDS011;75109;47.440;19.310;2024-01-07T00:14:30;20.53;;;20.53;;
84852;SDS011;75109;47.440;19.310;2024-01-07T00:15:02;21.13;;;21.13;;
84852;SDS011;75109;47.440;19.310;2024-01-07T00:15:35;21.87;;;21.73;;
84852;SDS011;75109;47.440;19.310;2024-01-07T00:16:07;21.53;;;21.40;;
84852;SDS011;75109;47.440;19.310;2024-01-07T00:16:40;20.80;;;20.80;;
84852;SDS011;75109;47.440;19.310;2024-01-07T00:17:13;21.93;;;21.40;;
84852;SDS011;75109;47.440;19.310;2024-01-07T00:17:46;20.90;;;20.33;;
84852;SDS011;75109;47.440;19.310;2024-01-07T00:18:18;20.33;;;20.33;;
84852;SDS011;75109;47.440;19.310;2024-01-07T00:18:50;20.60;;;20.60;;
84852;SDS011;75109;47.440;19.310;2024-01-07T00:19:22;21.17;;;21.17;;
84852;SDS011;75109;47.440;19.310;2024-01-07T00:19:55;21.00;;;21.00;;
84852;SDS011;75109;47.440;19.310;2024-01-07T00:20:27;21.20;;;21.20;;
84852;SDS011;75109;47.440;19.310;2024-01-07T00:20:59;21.53;;;21.53;;
84852;SDS011;75109;47.440;19.310;2024-01-07T00:21:31;21.53;;;21.53;;
84852;SDS011;75109;47.440;19.310;2024-01-07T00:22:04;21.37;;;21.37;;
84852;SDS011;75109;47.440;19.310;2024-01-07T00:22:36;21.40;;;21.40;;
84852;SDS011;75109;47.440;19.310;2024-01-07T00:23:08;21.50;;;21.50;;
84852;SDS011;75109;47.440;19.310;2024-01-07T00:23:40;21.13;;;21.13;;
84852;SDS011;75109;47.440;19.310;2024-01-07T00:24:14;22.17;;;22.17;;
84852;SDS011;75109;47.440;19.310;2024-01-07T00:24:46;21.53;;;21.50;;
84852;SDS011;75109;47.440;19.310;2024-01-07T00:25:19;20.87;;;20.87;;
84852;SDS011;75109;47.440;19.310;2024-01-07T00:25:52;20.10;;;20.10;;
84852;SDS011;75109;47.440;19.310;2024-01-07T00:26:24;19.67;;;19.67;;
84852;SDS011;75109;47.440;19.310;2024-01-07T00:26:56;20.30;;;20.30;;
84852;SDS011;75109;47.440;19.310;2024-01-07T00:27:28;21.53;;;21.53;;
84852;SDS011;75109;47.440;19.310;2024-01-07T00:28:01;20.87;;;20.87;;
84852;SDS011;75109;47.440;19.310;2024-01-07T00:28:34;21.17;;;21.17;;
84852;SDS011;75109;47.440;19.310;2024-01-07T00:29:06;21.57;;;21.43;;
84852;SDS011;75109;47.440;19.310;2024-01-07T00:29:38;21.17;;;20.73;;
84852;SDS011;75109;47.440;19.310;2024-01-07T00:30:11;21.43;;;21.23;;
84852;SDS011;75109;47.440;19.310;2024-01-07T00:30:43;21.43;;;21.27;;
84852;SDS011;75109;47.440;19.310;2024-01-07T00:31:16;21.50;;;21.50;;
84852;SDS011;75109;47.440;19.310;2024-01-07T00:31:48;20.73;;;20.50;;
84852;SDS011;75109;47.440;19.310;2024-01-07T00:32:20;20.37;;;20.37;;
84852;SDS011;75109;47.440;19.310;2024-01-07T00:32:53;20.97;;;20.80;;
84852;SDS011;75109;47.440;19.310;2024-01-07T00:33:25;21.87;;;21.63;;
84852;SDS011;75109;47.440;19.310;2024-01-07T00:33:58;21.87;;;21.87;;
84852;SDS011;75109;47.440;19.310;2024-01-07T00:34:30;21.63;;;21.60;;
84852;SDS011;75109;47.440;19.310;2024-01-07T00:35:02;21.77;;;21.70;;
84852;SDS011;75109;47.440;19.310;2024-01-07T00:35:35;23.17;;;22.77;;
84852;SDS011;75109;47.440;19.310;2024-01-07T00:36:08;22.53;;;22.50;;
84852;SDS011;75109;47.440;19.310;2024-01-07T00:36:41;22.63;;;22.57;;
84852;SDS011;75109;47.440;19.310;2024-01-07T00:37:13;23.33;;;22.70;;
84852;SDS011;75109;47.440;19.310;2024-01-07T00:37:45;23.33;;;22.57;;
84852;SDS011;75109;47.440;19.310;2024-01-07T00:38:17;22.83;;;22.63;;
84852;SDS011;75109;47.440;19.310;2024-01-07T00:38:50;23.30;;;22.97;;
84852;SDS011;75109;47.440;19.310;2024-01-07T00:39:23;22.97;;;22.87;;
84852;SDS011;75109;47.440;19.310;2024-01-07T01:12:02;21.93;;;21.30;;
84852;SDS011;75109;47.440;19.310;2024-01-07T01:12:35;20.60;;;20.60;;
84852;SDS011;75109;47.440;19.310;2024-01-07T01:13:08;20.33;;;20.27;;
84852;SDS011;75109;47.440;19.310;2024-01-07T01:13:40;20.87;;;20.57;;
84852;SDS011;75109;47.440;19.310;2024-01-07T01:14:13;21.43;;;21.37;;
84852;SDS011;75109;47.440;19.310;2024-01-07T01:14:45;22.07;;;22.03;;
84852;SDS011;75109;47.440;19.310;2024-01-07T01:15:17;20.77;;;20.77;;
84852;SDS011;75109;47.440;19.310;2024-01-07T01:15:50;21.10;;;20.97;;
84852;SDS011;75109;47.440;19.310;2024-01-07T01:16:23;19.97;;;19.90;;
84852;SDS011;75109;47.440;19.310;2024-01-07T01:16:55;20.03;;;20.00;;
84852;SDS011;75109;47.440;19.310;2024-01-07T01:17:27;20.50;;;20.17;;
84852;SDS011;75109;47.440;19.310;2024-01-07T01:18:00;20.83;;;20.73;;
84852;SDS011;75109;47.440;19.310;2024-01-07T01:18:32;19.77;;;19.77;;
84852;SDS011;75109;47.440;19.310;2024-01-07T01:19:04;19.80;;;19.80;;
84852;SDS011;75109;47.440;19.310;2024-01-07T01:19:37;20.10;;;19.70;;
84852;SDS011;75109;47.440;19.310;2024-01-07T01:20:10;20.93;;;20.73;;
84852;SDS011;75109;47.440;19.310;2024-01-07T01:20:43;20.03;;;20.00;;
84852;SDS011;75109;47.440;19.310;2024-01-07T01:21:15;21.03;;;21.03;;
84852;SDS011;75109;47.440;19.310;2024-01-07T01:21:48;19.93;;;19.93;;
84852;SDS011;75109;47.440;19.310;2024-01-07T01:22:20;20.63;;;20.63;;
84852;SDS011;75109;47.440;19.310;2024-01-07T01:22:52;20.47;;;20.47;;
84852;SDS011;75109;47.440;19.310;2024-01-07T01:23:25;20.30;;;20.30;;
84852;SDS011;75109;47.440;19.310;2024-01-07T01:23:57;20.70;;;20.70;;
84852;SDS011;75109;47.440;19.310;2024-01-07T01:24:29;18.13;;;18.13;;
84852;SDS011;75109;47.440;19.310;2024-01-07T01:25:01;19.07;;;19.07;;
84852;SDS011;75109;47.440;19.310;2024-01-07T01:25:35;18.57;;;18.57;;
84852;SDS011;75109;47.440;19.310;2024-01-07T01:26:07;17.87;;;17.87;;
84852;SDS011;75109;47.440;19.310;2024-01-07T01:26:41;18.03;;;17.67;;
84852;SDS011;75109;47.440;19.310;2024-01-07T01:27:13;18.37;;;18.23;;
84852;SDS011;75109;47.440;19.310;2024-01-07T01:27:47;17.20;;;17.20;;
84852;SDS011;75109;47.440;19.310;2024-01-07T01:28:19;17.67;;;17.67;;
84852;SDS011;75109;47.440;19.310;2024-01-07T01:28:52;17.67;;;17.67;;
84852;SDS011;75109;47.440;19.310;2024-01-07T01:29:24;16.87;;;16.87;;
84852;SDS011;75109;47.440;19.310;2024-01-07T01:29:57;18.07;;;18.07;;
84852;SDS011;75109;47.440;19.310;2024-01-07T01:30:29;17.37;;;17.37;;
84852;SDS011;75109;47.440;19.310;2024-01-07T01:31:03;16.53;;;16.53;;
84852;SDS011;75109;47.440;19.310;2024-01-07T01:31:36;16.37;;;16.30;;
84852;SDS011;75109;47.440;19.310;2024-01-07T01:32:09;16.97;;;16.80;;
84852;SDS011;75109;47.440;19.310;2024-01-07T01:32:41;16.17;;;15.97;;
84852;SDS011;75109;47.440;19.310;2024-01-07T01:33:14;15.87;;;15.83;;
84852;SDS011;75109;47.440;19.310;2024-01-07T01:33:47;16.23;;;16.20;;
84852;SDS011;75109;47.440;19.310;2024-01-07T01:34:19;16.70;;;16.70;;
84852;SDS011;75109;47.440;19.310;2024-01-07T01:34:52;17.63;;;17.63;;
84852;SDS011;75109;47.440;19.310;2024-01-07T01:35:24;17.07;;;17.07;;
84852;SDS011;75109;47.440;19.310;2024-01-07T01:35:57;15.80;;;15.80;;
84852;SDS011;75109;47.440;19.310;2024-01-07T01:36:30;16.03;;;16.03;;
84852;SDS011;75109;47.440;19.310;2024-01-07T01:37:03;15.47;;;15.47;;
84852;SDS011;75109;47.440;19.310;2024-01-07T01:37:35;14.57;;;14.57;;
84852;SDS011;75109;47.440;19.310;2024-01-07T01:38:07;14.20;;;14.20;;
84852;SDS011;75109;47.440;19.310;2024-01-07T01:38:40;15.63;;;15.63;;
84852;SDS011;75109;47.440;19.310;2024-01-07T01:39:13;15.63;;;15.63;;
84852;SDS011;75109;47.440;19.310;2024-01-07T01:39:45;14.40;;;14.40;;
84852;SDS011;75109;47.440;19.310;2024-01-07T01:40:18;14.70;;;14.70;;
84852;SDS011;75109;47.440;19.310;2024-01-07T01:40:53;14.37;;;14.37;;
84852;SDS011;75109;47.440;19.310;2024-01-07T01:41:26;14.83;;;14.83;;
84852;SDS011;75109;47.440;19.310;2024-01-07T01:41:59;13.67;;;13.67;;
84852;SDS011;75109;47.440;19.310;2024-01-07T01:42:31;13.73;;;13.73;;
84852;SDS011;75109;47.440;19.310;2024-01-07T01:43:03;14.47;;;14.47;;
84852;SDS011;75109;47.440;19.310;2024-01-07T01:43:36;14.00;;;14.00;;
84852;SDS011;75109;47.440;19.310;2024-01-07T01:44:08;13.53;;;13.53;;
84852;SDS011;75109;47.440;19.310;2024-01-07T01:44:41;13.23;;;13.23;;
84852;SDS011;75109;47.440;19.310;2024-01-07T01:45:14;13.57;;;13.57;;
84852;SDS011;75109;47.440;19.310;2024-01-07T01:45:46;13.53;;;13.53;;
84852;SDS011;75109;47.440;19.310;2024-01-07T01:46:19;12.73;;;12.73;;
84852;SDS011;75109;47.440;19.310;2024-01-07T01:46:51;12.53;;;12.53;;
84852;SDS011;75109;47.440;19.310;2024-01-07T01:47:24;12.17;;;12.17;;
84852;SDS011;75109;47.440;19.310;2024-01-07T01:47:56;12.60;;;12.60;;
84852;SDS011;75109;47.440;19.310;2024-01-07T01:48:29;13.27;;;13.27;;
84852;SDS011;75109;47.440;19.310;2024-01-07T01:49:02;13.83;;;13.83;;
84852;SDS011;75109;47.440;19.310;2024-01-07T01:49:34;13.33;;;13.33;;
84852;SDS011;75109;47.440;19.310;2024-01-07T01:50:08;12.63;;;12.57;;
84852;SDS011;75109;47.440;19.310;2024-01-07T01:50:43;12.60;;;12.57;;
84852;SDS011;75109;47.440;19.310;2024-01-07T01:51:15;13.43;;;13.43;;
84852;SDS011;75109;47.440;19.310;2024-01-07T01:51:48;12.40;;;12.40;;
84852;SDS011;75109;47.440;19.310;2024-01-07T01:52:22;11.47;;;11.47;;
84852;SDS011;75109;47.440;19.310;2024-01-07T01:52:55;12.53;;;12.53;;
84852;SDS011;75109;47.440;19.310;2024-01-07T01:53:27;12.40;;;12.40;;
84852;SDS011;75109;47.440;19.310;2024-01-07T01:54:00;12.27;;;12.27;;
84852;SDS011;75109;47.440;19.310;2024-01-07T01:54:34;13.03;;;13.03;;
84852;SDS011;75109;47.440;19.310;2024-01-07T01:55:07;12.07;;;12.07;;
84852;SDS011;75109;47.440;19.310;2024-01-07T01:55:40;12.23;;;12.23;;
84852;SDS011;75109;47.440;19.310;2024-01-07T01:56:12;11.70;;;11.70;;
84852;SDS011;75109;47.440;19.310;2024-01-07T01:56:46;12.03;;;12.03;;
84852;SDS011;75109;47.440;19.310;2024-01-07T01:57:21;13.03;;;13.03;;
84852;SDS011;75109;47.440;19.310;2024-01-07T01:57:56;12.57;;;12.57;;
84852;SDS011;75109;47.440;19.310;2024-01-07T01:58:36;11.93;;;11.93;;
84852;SDS011;75109;47.440;19.310;2024-01-07T01:59:08;12.53;;;12.53;;
84852;SDS011;75109;47.440;19.310;2024-01-07T01:59:40;11.93;;;11.93;;
84852;SDS011;75109;47.440;19.310;2024-01-07T02:00:15;12.77;;;12.77;;
84852;SDS011;75109;47.440;19.310;2024-01-07T02:00:47;12.93;;;12.93;;
84852;SDS011;75109;47.440;19.310;2024-01-07T02:01:19;12.33;;;12.33;;
84852;SDS011;75109;47.440;19.310;2024-01-07T02:01:52;13.07;;;12.90;;
84852;SDS011;75109;47.440;19.310;2024-01-07T02:02:24;12.93;;;12.53;;
84852;SDS011;75109;47.440;19.310;2024-01-07T02:02:56;12.17;;;11.87;;
84852;SDS011;75109;47.440;19.310;2024-01-07T02:03:28;12.97;;;12.90;;
84852;SDS011;75109;47.440;19.310;2024-01-07T02:04:01;12.33;;;12.33;;
84852;SDS011;75109;47.440;19.310;2024-01-07T02:04:33;13.20;;;13.20;;
84852;SDS011;75109;47.440;19.310;2024-01-07T02:05:05;13.50;;;13.50;;
84852;SDS011;75109;47.440;19.310;2024-01-07T02:05:38;12.97;;;12.93;;
84852;SDS011;75109;47.440;19.310;2024-01-07T02:06:10;13.83;;;13.60;;
84852;SDS011;75109;47.440;19.310;2024-01-07T02:06:44;14.30;;;13.93;;
84852;SDS011;75109;47.440;19.310;2024-01-07T02:07:17;13.50;;;13.33;;
84852;SDS011;75109;47.440;19.310;2024-01-07T02:07:50;12.93;;;12.67;;
84852;SDS011;75109;47.440;19.310;2024-01-07T02:08:24;12.23;;;11.93;;
84852;SDS011;75109;47.440;19.310;2024-01-07T02:08:57;13.23;;;12.83;;
84852;SDS011;75109;47.440;19.310;2024-01-07T02:09:29;13.27;;;13.07;;
84852;SDS011;75109;47.440;19.310;2024-01-07T02:10:02;12.83;;;12.73;;
84852;SDS011;75109;47.440;19.310;2024-01-07T02:10:35;12.30;;;12.30;;
84852;SDS011;75109;47.440;19.310;2024-01-07T02:11:16;13.07;;;13.07;;
84852;SDS011;75109;47.440;19.310;2024-01-07T02:12:01;13.90;;;13.90;;
84852;SDS011;75109;47.440;19.310;2024-01-07T02:12:36;14.10;;;14.10;;
84852;SDS011;75109;47.440;19.310;2024-01-07T02:13:08;13.87;;;13.87;;
84852;SDS011;75109;47.440;19.310;2024-01-07T02:13:40;12.93;;;12.93;;
84852;SDS011;75109;47.440;19.310;2024-01-07T02:14:12;12.90;;;12.90;;
84852;SDS011;75109;47.440;19.310;2024-01-07T02:14:45;13.70;;;13.60;;
84852;SDS011;75109;47.440;19.310;2024-01-07T02:15:17;14.50;;;14.37;;
84852;SDS011;75109;47.440;19.310;2024-01-07T02:15:50;14.50;;;14.47;;
84852;SDS011;75109;47.440;19.310;2024-01-07T02:16:22;14.33;;;14.33;;
84852;SDS011;75109;47.440;19.310;2024-01-07T02:16:54;13.23;;;13.23;;
84852;SDS011;75109;47.440;19.310;2024-01-07T02:17:27;14.50;;;14.50;;
84852;SDS011;75109;47.440;19.310;2024-01-07T02:18:00;14.80;;;14.80;;
84852;SDS011;75109;47.440;19.310;2024-01-07T02:18:33;14.40;;;14.40;;
84852;SDS011;75109;47.440;19.310;2024-01-07T02:19:06;13.90;;;13.90;;
84852;SDS011;75109;47.440;19.310;2024-01-07T02:19:38;14.53;;;14.53;;
84852;SDS011;75109;47.440;19.310;2024-01-07T02:20:11;14.37;;;14.37;;
84852;SDS011;75109;47.440;19.310;2024-01-07T02:20:43;13.87;;;13.87;;
84852;SDS011;75109;47.440;19.310;2024-01-07T02:21:15;14.53;;;14.53;;
84852;SDS011;75109;47.440;19.310;2024-01-07T02:21:47;15.07;;;15.07;;
84852;SDS011;75109;47.440;19.310;2024-01-07T02:22:21;14.90;;;14.90;;
84852;SDS011;75109;47.440;19.310;2024-01-07T02:22:53;14.63;;;14.63;;
84852;SDS011;75109;47.440;19.310;2024-01-07T02:23:25;15.07;;;15.03;;
84852;SDS011;75109;47.440;19.310;2024-01-07T02:23:57;15.00;;;15.00;;
84852;SDS011;75109;47.440;19.310;2024-01-07T02:24:31;15.00;;;15.00;;
84852;SDS011;75109;47.440;19.310;2024-01-07T02:25:04;14.37;;;14.37;;
84852;SDS011;75109;47.440;19.310;2024-01-07T02:25:37;14.60;;;14.53;;
84852;SDS011;75109;47.440;19.310;2024-01-07T02:26:09;14.97;;;14.93;;
84852;SDS011;75109;47.440;19.310;2024-01-07T02:26:42;15.20;;;15.17;;
84852;SDS011;75109;47.440;19.310;2024-01-07T02:27:14;16.13;;;15.80;;
84852;SDS011;75109;47.440;19.310;2024-01-07T02:27:46;15.80;;;15.57;;
84852;SDS011;75109;47.440;19.310;2024-01-07T02:28:19;14.73;;;14.73;;
84852;SDS011;75109;47.440;19.310;2024-01-07T02:28:51;14.77;;;14.73;;
84852;SDS011;75109;47.440;19.310;2024-01-07T02:29:23;14.97;;;14.90;;
84852;SDS011;75109;47.440;19.310;2024-01-07T02:29:55;15.93;;;15.90;;
84852;SDS011;75109;47.440;19.310;2024-01-07T02:30:28;15.50;;;15.50;;
84852;SDS011;75109;47.440;19.310;2024-01-07T02:31:00;15.37;;;15.37;;
84852;SDS011;75109;47.440;19.310;2024-01-07T02:31:33;14.73;;;14.57;;
84852;SDS011;75109;47.440;19.310;2024-01-07T02:32:05;16.00;;;15.47;;
84852;SDS011;75109;47.440;19.310;2024-01-07T02:32:38;16.63;;;16.07;;
84852;SDS011;75109;47.440;19.310;2024-01-07T02:33:11;17.00;;;16.40;;
84852;SDS011;75109;47.440;19.310;2024-01-07T02:33:43;15.47;;;15.23;;
84852;SDS011;75109;47.440;19.310;2024-01-07T02:34:16;14.93;;;14.87;;
84852;SDS011;75109;47.440;19.310;2024-01-07T02:34:48;15.83;;;15.77;;
84852;SDS011;75109;47.440;19.310;2024-01-07T02:35:20;16.13;;;16.07;;
84852;SDS011;75109;47.440;19.310;2024-01-07T02:35:53;16.40;;;16.37;;
84852;SDS011;75109;47.440;19.310;2024-01-07T02:36:25;15.30;;;15.20;;
84852;SDS011;75109;47.440;19.310;2024-01-07T02:36:58;15.17;;;15.13;;
84852;SDS011;75109;47.440;19.310;2024-01-07T02:37:30;14.47;;;14.47;;
84852;SDS011;75109;47.440;19.310;2024-01-07T02:38:03;14.07;;;14.07;;
84852;SDS011;75109;47.440;19.310;2024-01-07T02:38:35;15.70;;;15.70;;
84852;SDS011;75109;47.440;19.310;2024-01-07T02:39:07;15.50;;;15.47;;
84852;SDS011;75109;47.440;19.310;2024-01-07T02:39:41;15.43;;;15.43;;
84852;SDS011;75109;47.440;19.310;2024-01-07T02:40:16;15.43;;;15.43;;
84852;SDS011;75109;47.440;19.310;2024-01-07T02:40:48;14.87;;;14.87;;
84852;SDS011;75109;47.440;19.310;2024-01-07T02:41:20;14.80;;;14.80;;
84852;SDS011;75109;47.440;19.310;2024-01-07T02:41:57;14.70;;;14.70;;
84852;SDS011;75109;47.440;19.310;2024-01-07T02:42:30;15.23;;;15.23;;
84852;SDS011;75109;47.440;19.310;2024-01-07T02:43:02;15.33;;;15.33;;
84852;SDS011;75109;47.440;19.310;2024-01-07T02:43:34;15.37;;;15.37;;
84852;SDS011;75109;47.440;19.310;2024-01-07T02:44:07;15.77;;;15.67;;
84852;SDS011;75109;47.440;19.310;2024-01-07T02:44:41;16.20;;;16.03;;
84852;SDS011;75109;47.440;19.310;2024-01-07T02:45:13;15.73;;;15.57;;
84852;SDS011;75109;47.440;19.310;2024-01-07T02:45:45;15.77;;;15.77;;
84852;SDS011;75109;47.440;19.310;2024-01-07T02:46:18;15.27;;;15.27;;
84852;SDS011;75109;47.440;19.310;2024-01-07T02:46:51;14.53;;;14.50;;
84852;SDS011;75109;47.440;19.310;2024-01-07T02:47:24;16.57;;;16.23;;
84852;SDS011;75109;47.440;19.310;2024-01-07T02:47:56;14.60;;;14.57;;
84852;SDS011;75109;47.440;19.310;2024-01-07T02:48:28;15.40;;;15.17;;
84852;SDS011;75109;47.440;19.310;2024-01-07T02:49:00;16.07;;;16.07;;
84852;SDS011;75109;47.440;19.310;2024-01-07T02:49:33;14.70;;;14.70;;
84852;SDS011;75109;47.440;19.310;2024-01-07T02:50:06;14.20;;;14.20;;
84852;SDS011;75109;47.440;19.310;2024-01-07T02:50:39;14.90;;;14.90;;
84852;SDS011;75109;47.440;19.310;2024-01-07T02:51:11;14.77;;;14.77;;
84852;SDS011;75109;47.440;19.310;2024-01-07T02:51:44;14.77;;;14.77;;
84852;SDS011;75109;47.440;19.310;2024-01-07T02:52:20;14.50;;;14.50;;
84852;SDS011;75109;47.440;19.310;2024-01-07T02:52:53;15.37;;;15.37;;
84852;SDS011;75109;47.440;19.310;2024-01-07T02:53:25;13.90;;;13.90;;
84852;SDS011;75109;47.440;19.310;2024-01-07T02:53:58;14.20;;;14.20;;
84852;SDS011;75109;47.440;19.310;2024-01-07T02:54:31;14.50;;;14.50;;
84852;SDS011;75109;47.440;19.310;2024-01-07T02:55:08;14.70;;;14.70;;
84852;SDS011;75109;47.440;19.310;2024-01-07T02:55:40;14.43;;;14.43;;
84852;SDS011;75109;47.440;19.310;2024-01-07T02:56:12;14.20;;;14.20;;
84852;SDS011;75109;47.440;19.310;2024-01-07T02:56:45;14.57;;;14.37;;
84852;SDS011;75109;47.440;19.310;2024-01-07T02:57:17;14.43;;;14.33;;
84852;SDS011;75109;47.440;19.310;2024-01-07T02:57:49;14.33;;;14.33;;
84852;SDS011;75109;47.440;19.310;2024-01-07T02:58:21;14.73;;;14.70;;
84852;SDS011;75109;47.440;19.310;2024-01-07T02:58:54;15.33;;;15.30;;
84852;SDS011;75109;47.440;19.310;2024-01-07T02:59:26;14.80;;;14.60;;
84852;SDS011;75109;47.440;19.310;2024-01-07T02:59:59;14.47;;;14.47;;
84852;SDS011;75109;47.440;19.310;2024-01-07T03:00:31;13.77;;;13.77;;
84852;SDS011;75109;47.440;19.310;2024-01-07T03:01:05;13.57;;;13.57;;
84852;SDS011;75109;47.440;19.310;2024-01-07T03:01:40;14.97;;;14.97;;
84852;SDS011;75109;47.440;19.310;2024-01-07T03:02:14;14.37;;;14.37;;
84852;SDS011;75109;47.440;19.310;2024-01-07T03:02:46;13.73;;;13.73;;
84852;SDS011;75109;47.440;19.310;2024-01-07T03:03:18;14.40;;;14.40;;
84852;SDS011;75109;47.440;19.310;2024-01-07T03:03:50;14.53;;;14.53;;
84852;SDS011;75109;47.440;19.310;2024-01-07T03:04:22;14.07;;;14.07;;
84852;SDS011;75109;47.440;19.310;2024-01-07T03:04:54;13.83;;;13.83;;
84852;SDS011;75109;47.440;19.310;2024-01-07T03:05:27;13.77;;;13.77;;
84852;SDS011;75109;47.440;19.310;2024-01-07T03:06:01;14.53;;;14.53;;
84852;SDS011;75109;47.440;19.310;2024-01-07T03:06:33;14.50;;;14.50;;
84852;SDS011;75109;47.440;19.310;2024-01-07T03:07:06;14.87;;;14.87;;
84852;SDS011;75109;47.440;19.310;2024-01-07T03:07:38;14.37;;;14.37;;
84852;SDS011;75109;47.440;19.310;2024-01-07T03:08:11;13.40;;;13.40;;
84852;SDS011;75109;47.440;19.310;2024-01-07T03:08:43;13.50;;;13.50;;
84852;SDS011;75109;47.440;19.310;2024-01-07T03:09:15;13.57;;;13.57;;
84852;SDS011;75109;47.440;19.310;2024-01-07T03:09:48;12.60;;;12.60;;
84852;SDS011;75109;47.440;19.310;2024-01-07T03:10:22;13.23;;;13.23;;
84852;SDS011;75109;47.440;19.310;2024-01-07T03:10:54;13.83;;;13.80;;
84852;SDS011;75109;47.440;19.310;2024-01-07T03:11:26;13.87;;;13.87;;
84852;SDS011;75109;47.440;19.310;2024-01-07T03:11:59;13.23;;;13.23;;
84852;SDS011;75109;47.440;19.310;2024-01-07T03:12:31;13.80;;;13.80;;
84852;SDS011;75109;47.440;19.310;2024-01-07T03:13:03;13.70;;;13.70;;
84852;SDS011;75109;47.440;19.310;2024-01-07T03:13:35;12.97;;;12.97;;
84852;SDS011;75109;47.440;19.310;2024-01-07T03:14:07;12.93;;;12.93;;
84852;SDS011;75109;47.440;19.310;2024-01-07T03:14:40;12.90;;;12.90;;
84852;SDS011;75109;47.440;19.310;2024-01-07T03:15:27;12.60;;;12.60;;
84852;SDS011;75109;47.440;19.310;2024-01-07T03:16:00;13.27;;;13.27;;
84852;SDS011;75109;47.440;19.310;2024-01-07T03:16:32;13.00;;;13.00;;
84852;SDS011;75109;47.440;19.310;2024-01-07T03:17:04;11.93;;;11.93;;
84852;SDS011;75109;47.440;19.310;2024-01-07T03:17:36;12.57;;;12.57;;
84852;SDS011;75109;47.440;19.310;2024-01-07T03:18:08;12.83;;;12.83;;
84852;SDS011;75109;47.440;19.310;2024-01-07T03:18:41;12.73;;;12.73;;
84852;SDS011;75109;47.440;19.310;2024-01-07T03:19:13;12.60;;;12.60;;
84852;SDS011;75109;47.440;19.310;2024-01-07T03:19:45;12.20;;;12.20;;
84852;SDS011;75109;47.440;19.310;2024-01-07T03:20:18;12.00;;;12.00;;
84852;SDS011;75109;47.440;19.310;2024-01-07T03:20:50;12.37;;;12.37;;
84852;SDS011;75109;47.440;19.310;2024-01-07T03:21:23;11.87;;;11.87;;
84852;SDS011;75109;47.440;19.310;2024-01-07T03:21:55;11.30;;;11.30;;
84852;SDS011;75109;47.440;19.310;2024-01-07T03:22:27;12.03;;;12.03;;
84852;SDS011;75109;47.440;19.310;2024-01-07T03:23:01;11.87;;;11.87;;
84852;SDS011;75109;47.440;19.310;2024-01-07T03:23:34;12.53;;;12.47;;
84852;SDS011;75109;47.440;19.310;2024-01-07T03:24:08;11.40;;;11.40;;
84852;SDS011;75109;47.440;19.310;2024-01-07T03:24:41;11.63;;;11.63;;
84852;SDS011;75109;47.440;19.310;2024-01-07T03:25:13;11.33;;;11.33;;
84852;SDS011;75109;47.440;19.310;2024-01-07T03:25:47;11.27;;;11.27;;
84852;SDS011;75109;47.440;19.310;2024-01-07T03:26:20;10.90;;;10.90;;
84852;SDS011;75109;47.440;19.310;2024-01-07T03:26:52;11.60;;;11.60;;
84852;SDS011;75109;47.440;19.310;2024-01-07T03:27:25;10.77;;;10.77;;
84852;SDS011;75109;47.440;19.310;2024-01-07T03:27:57;11.00;;;11.00;;
84852;SDS011;75109;47.440;19.310;2024-01-07T03:28:30;11.33;;;11.33;;
84852;SDS011;75109;47.440;19.310;2024-01-07T03:29:02;10.73;;;10.73;;
84852;SDS011;75109;47.440;19.310;2024-01-07T03:29:34;10.63;;;10.63;;
84852;SDS011;75109;47.440;19.310;2024-01-07T03:30:08;11.63;;;11.63;;
84852;SDS011;75109;47.440;19.310;2024-01-07T03:30:41;11.50;;;11.50;;
84852;SDS011;75109;47.440;19.310;2024-01-07T03:31:14;11.20;;;11.20;;
84852;SDS011;75109;47.440;19.310;2024-01-07T03:31:48;10.80;;;10.80;;
84852;SDS011;75109;47.440;19.310;2024-01-07T03:32:20;10.73;;;10.73;;
84852;SDS011;75109;47.440;19.310;2024-01-07T03:32:52;10.13;;;10.13;;
84852;SDS011;75109;47.440;19.310;2024-01-07T03:33:25;10.93;;;10.93;;
84852;SDS011;75109;47.440;19.310;2024-01-07T03:33:57;11.00;;;11.00;;
84852;SDS011;75109;47.440;19.310;2024-01-07T03:34:29;11.17;;;11.17;;
84852;SDS011;75109;47.440;19.310;2024-01-07T03:35:01;10.77;;;10.77;;
84852;SDS011;75109;47.440;19.310;2024-01-07T03:35:33;10.53;;;10.53;;
84852;SDS011;75109;47.440;19.310;2024-01-07T03:36:06;9.87;;;9.87;;
84852;SDS011;75109;47.440;19.310;2024-01-07T03:36:40;10.17;;;10.17;;
84852;SDS011;75109;47.440;19.310;2024-01-07T03:37:12;10.20;;;10.20;;
84852;SDS011;75109;47.440;19.310;2024-01-07T03:37:44;9.70;;;9.70;;
84852;SDS011;75109;47.440;19.310;2024-01-07T03:38:17;10.00;;;10.00;;
84852;SDS011;75109;47.440;19.310;2024-01-07T03:38:49;10.43;;;10.43;;
84852;SDS011;75109;47.440;19.310;2024-01-07T03:39:21;10.77;;;10.77;;
84852;SDS011;75109;47.440;19.310;2024-01-07T03:39:54;9.63;;;9.63;;
84852;SDS011;75109;47.440;19.310;2024-01-07T03:40:26;9.73;;;9.73;;
84852;SDS011;75109;47.440;19.310;2024-01-07T03:41:00;10.27;;;10.27;;